sensor_id;sensor_type;location;lat;lon;timestamp;pressure;altitude;pressure_sealevel;temperature;humidity
74631;BME280;63138;55.082;38.804;2023-04-06T00:02:07;100439.06;;;4.97;75.88
74631;BME280;63138;55.082;38.804;2023-04-06T00:04:34;100437.34;;;4.96;76.09
74631;BME280;63138;55.082;38.804;2023-04-06T00:07:01;100435.91;;;4.92;76.22
74631;BME280;63138;55.082;38.804;2023-04-06T00:09:30;100429.56;;;4.82;76.34
74631;BME280;63138;55.082;38.804;2023-04-06T00:11:56;100435.53;;;4.86;76.16
74631;BME280;63138;55.082;38.804;2023-04-06T00:14:23;100426.16;;;4.80;76.61
74631;BME280;63138;55.082;38.804;2023-04-06T00:17:00;100436.19;;;4.78;76.96
74631;BME280;63138;55.082;38.804;2023-04-06T00:19:28;100438.88;;;4.78;77.06
74631;BME280;63138;55.082;38.804;2023-04-06T00:21:55;100442.09;;;4.72;77.16
74631;BME280;63138;55.082;38.804;2023-04-06T00:24:22;100416.56;;;4.55;77.05
74631;BME280;63138;55.082;38.804;2023-04-06T00:26:50;100443.31;;;4.68;77.60
74631;BME280;63138;55.082;38.804;2023-04-06T00:29:15;100435.88;;;4.60;77.62
74631;BME280;63138;55.082;38.804;2023-04-06T00:31:41;100445.66;;;4.61;77.83
74631;BME280;63138;55.082;38.804;2023-04-06T00:34:09;100446.28;;;4.53;78.00
74631;BME280;63138;55.082;38.804;2023-04-06T00:36:37;100438.19;;;4.53;77.66
74631;BME280;63138;55.082;38.804;2023-04-06T00:39:03;100448.34;;;4.50;78.02
74631;BME280;63138;55.082;38.804;2023-04-06T00:41:51;100445.78;;;4.48;78.38
74631;BME280;63138;55.082;38.804;2023-04-06T00:44:42;100455.81;;;4.46;78.22
74631;BME280;63138;55.082;38.804;2023-04-06T00:47:29;100449.72;;;4.44;78.52
74631;BME280;63138;55.082;38.804;2023-04-06T00:49:56;100449.97;;;4.41;78.59
74631;BME280;63138;55.082;38.804;2023-04-06T00:52:23;100447.66;;;4.36;78.78
74631;BME280;63138;55.082;38.804;2023-04-06T00:54:50;100441.69;;;4.33;78.30
74631;BME280;63138;55.082;38.804;2023-04-06T00:57:17;100443.13;;;4.37;78.98
74631;BME280;63138;55.082;38.804;2023-04-06T00:59:47;100446.06;;;4.34;78.83
74631;BME280;63138;55.082;38.804;2023-04-06T01:02:13;100435.44;;;4.32;79.08
74631;BME280;63138;55.082;38.804;2023-04-06T01:04:45;100442.75;;;4.30;79.29
74631;BME280;63138;55.082;38.804;2023-04-06T01:07:21;100445.72;;;4.27;79.06
74631;BME280;63138;55.082;38.804;2023-04-06T01:10:01;100449.38;;;4.26;79.13
74631;BME280;63138;55.082;38.804;2023-04-06T01:12:30;100449.63;;;4.23;79.62
74631;BME280;63138;55.082;38.804;2023-04-06T01:14:59;100432.63;;;4.22;79.43
74631;BME280;63138;55.082;38.804;2023-04-06T01:17:28;100434.59;;;4.20;79.42
74631;BME280;63138;55.082;38.804;2023-04-06T01:19:57;100435.84;;;4.16;79.42
74631;BME280;63138;55.082;38.804;2023-04-06T01:22:29;100426.88;;;4.16;80.11
74631;BME280;63138;55.082;38.804;2023-04-06T01:25:19;100445.84;;;4.14;79.52
74631;BME280;63138;55.082;38.804;2023-04-06T01:28:04;100439.00;;;4.10;79.81
74631;BME280;63138;55.082;38.804;2023-04-06T01:30:56;100442.78;;;4.08;80.45
74631;BME280;63138;55.082;38.804;2023-04-06T01:33:39;100443.03;;;4.05;80.40
74631;BME280;63138;55.082;38.804;2023-04-06T01:36:09;100438.78;;;4.02;80.03
74631;BME280;63138;55.082;38.804;2023-04-06T01:38:35;100433.63;;;3.99;80.35
74631;BME280;63138;55.082;38.804;2023-04-06T01:41:29;100438.03;;;4.00;80.59
74631;BME280;63138;55.082;38.804;2023-04-06T01:44:20;100434.59;;;3.98;79.98
74631;BME280;63138;55.082;38.804;2023-04-06T01:46:53;100440.84;;;3.98;80.31
74631;BME280;63138;55.082;38.804;2023-04-06T01:49:22;100440.13;;;3.96;80.57
74631;BME280;63138;55.082;38.804;2023-04-06T01:51:53;100441.19;;;3.94;80.73
74631;BME280;63138;55.082;38.804;2023-04-06T01:54:21;100447.44;;;3.94;80.99
74631;BME280;63138;55.082;38.804;2023-04-06T01:57:02;100445.13;;;3.90;80.89
74631;BME280;63138;55.082;38.804;2023-04-06T01:59:33;100447.81;;;3.90;81.20
74631;BME280;63138;55.082;38.804;2023-04-06T02:02:04;100430.34;;;3.84;81.04
74631;BME280;63138;55.082;38.804;2023-04-06T02:04:31;100443.53;;;3.87;81.19
74631;BME280;63138;55.082;38.804;2023-04-06T02:07:07;100450.00;;;3.85;81.44
74631;BME280;63138;55.082;38.804;2023-04-06T02:09:33;100450.00;;;3.85;81.27
74631;BME280;63138;55.082;38.804;2023-04-06T02:11:59;100448.41;;;3.82;81.22
74631;BME280;63138;55.082;38.804;2023-04-06T02:14:27;100444.00;;;3.81;81.42
74631;BME280;63138;55.082;38.804;2023-04-06T02:16:56;100458.28;;;3.81;81.15
74631;BME280;63138;55.082;38.804;2023-04-06T02:19:25;100450.50;;;3.78;81.43
74631;BME280;63138;55.082;38.804;2023-04-06T02:21:50;100454.88;;;3.79;81.38
74631;BME280;63138;55.082;38.804;2023-04-06T02:24:16;100446.94;;;3.78;81.30
74631;BME280;63138;55.082;38.804;2023-04-06T02:26:42;100447.06;;;3.76;81.36
74631;BME280;63138;55.082;38.804;2023-04-06T02:29:09;100447.19;;;3.75;81.35
74631;BME280;63138;55.082;38.804;2023-04-06T02:31:36;100448.16;;;3.74;81.39
74631;BME280;63138;55.082;38.804;2023-04-06T02:34:03;100449.16;;;3.73;81.66
74631;BME280;63138;55.082;38.804;2023-04-06T02:36:30;100450.00;;;3.73;81.78
74631;BME280;63138;55.082;38.804;2023-04-06T02:38:56;100457.31;;;3.71;81.43
74631;BME280;63138;55.082;38.804;2023-04-06T02:41:22;100452.06;;;3.70;81.34
74631;BME280;63138;55.082;38.804;2023-04-06T02:43:49;100464.50;;;3.71;81.64
74631;BME280;63138;55.082;38.804;2023-04-06T02:46:24;100465.50;;;3.70;81.56
74631;BME280;63138;55.082;38.804;2023-04-06T02:48:51;100461.09;;;3.69;81.54
74631;BME280;63138;55.082;38.804;2023-04-06T02:51:17;100463.66;;;3.70;81.51
74631;BME280;63138;55.082;38.804;2023-04-06T02:54:18;100470.13;;;3.68;81.38
74631;BME280;63138;55.082;38.804;2023-04-06T02:56:45;100471.81;;;3.69;81.35
74631;BME280;63138;55.082;38.804;2023-04-06T02:59:12;100462.81;;;3.70;81.23
74631;BME280;63138;55.082;38.804;2023-04-06T03:01:43;100467.34;;;3.69;81.04
74631;BME280;63138;55.082;38.804;2023-04-06T03:04:10;100475.50;;;3.68;81.30
74631;BME280;63138;55.082;38.804;2023-04-06T03:06:36;100469.41;;;3.66;81.57
74631;BME280;63138;55.082;38.804;2023-04-06T03:09:12;100472.94;;;3.66;81.29
74631;BME280;63138;55.082;38.804;2023-04-06T03:11:41;100475.63;;;3.66;81.46
74631;BME280;63138;55.082;38.804;2023-04-06T03:14:12;100482.06;;;3.63;81.27
74631;BME280;63138;55.082;38.804;2023-04-06T03:16:38;100482.69;;;3.67;81.31
74631;BME280;63138;55.082;38.804;2023-04-06T03:19:07;100477.47;;;3.66;81.00
74631;BME280;63138;55.082;38.804;2023-04-06T03:21:35;100482.56;;;3.69;80.61
74631;BME280;63138;55.082;38.804;2023-04-06T03:24:01;100486.00;;;3.71;80.90
74631;BME280;63138;55.082;38.804;2023-04-06T03:26:29;100489.44;;;3.73;80.52
74631;BME280;63138;55.082;38.804;2023-04-06T03:28:59;100487.81;;;3.70;80.44
74631;BME280;63138;55.082;38.804;2023-04-06T03:31:29;100496.16;;;3.78;80.08
74631;BME280;63138;55.082;38.804;2023-04-06T03:34:29;100500.53;;;3.79;80.19
74631;BME280;63138;55.082;38.804;2023-04-06T03:36:59;100500.31;;;3.82;79.81
74631;BME280;63138;55.082;38.804;2023-04-06T03:39:27;100506.53;;;3.83;79.73
74631;BME280;63138;55.082;38.804;2023-04-06T03:41:54;100508.25;;;3.84;79.76
74631;BME280;63138;55.082;38.804;2023-04-06T03:44:36;100510.44;;;3.90;79.29
74631;BME280;63138;55.082;38.804;2023-04-06T03:47:03;100510.44;;;3.90;78.88
74631;BME280;63138;55.082;38.804;2023-04-06T03:49:32;100519.13;;;3.94;79.25
74631;BME280;63138;55.082;38.804;2023-04-06T03:52:00;100515.81;;;4.01;79.43
74631;BME280;63138;55.082;38.804;2023-04-06T03:54:28;100519.50;;;4.00;78.98
74631;BME280;63138;55.082;38.804;2023-04-06T03:56:54;100518.41;;;4.03;79.15
74631;BME280;63138;55.082;38.804;2023-04-06T03:59:25;100508.53;;;4.04;78.85
74631;BME280;63138;55.082;38.804;2023-04-06T04:02:21;100519.13;;;4.05;78.40
74631;BME280;63138;55.082;38.804;2023-04-06T04:04:47;100515.25;;;4.09;78.49
74631;BME280;63138;55.082;38.804;2023-04-06T04:07:13;100509.88;;;4.09;78.55
74631;BME280;63138;55.082;38.804;2023-04-06T04:09:38;100515.75;;;4.14;78.54
74631;BME280;63138;55.082;38.804;2023-04-06T04:12:06;100505.72;;;4.16;78.19
74631;BME280;63138;55.082;38.804;2023-04-06T04:14:33;100507.06;;;4.22;78.33
74631;BME280;63138;55.082;38.804;2023-04-06T04:17:30;100506.44;;;4.30;77.53
74631;BME280;63138;55.082;38.804;2023-04-06T04:19:58;100521.63;;;4.31;77.48
74631;BME280;63138;55.082;38.804;2023-04-06T04:22:24;100513.78;;;4.39;77.05
74631;BME280;63138;55.082;38.804;2023-04-06T04:24:54;100519.16;;;4.39;77.17
74631;BME280;63138;55.082;38.804;2023-04-06T04:27:21;100518.91;;;4.42;76.39
74631;BME280;63138;55.082;38.804;2023-04-06T04:29:50;100523.78;;;4.48;76.55
74631;BME280;63138;55.082;38.804;2023-04-06T04:32:16;100527.34;;;4.60;76.60
74631;BME280;63138;55.082;38.804;2023-04-06T04:34:44;100525.13;;;4.65;75.79
74631;BME280;63138;55.082;38.804;2023-04-06T04:37:20;100518.63;;;4.68;75.40
74631;BME280;63138;55.082;38.804;2023-04-06T04:39:50;100521.06;;;4.82;74.84
74631;BME280;63138;55.082;38.804;2023-04-06T04:42:16;100519.09;;;4.84;74.73
74631;BME280;63138;55.082;38.804;2023-04-06T04:44:52;100516.38;;;4.95;74.67
74631;BME280;63138;55.082;38.804;2023-04-06T04:47:32;100517.59;;;5.03;73.90
74631;BME280;63138;55.082;38.804;2023-04-06T04:49:59;100520.50;;;5.11;73.78
74631;BME280;63138;55.082;38.804;2023-04-06T04:52:28;100517.78;;;5.22;73.28
74631;BME280;63138;55.082;38.804;2023-04-06T04:55:09;100524.31;;;5.29;72.94
74631;BME280;63138;55.082;38.804;2023-04-06T04:57:35;100520.41;;;5.33;72.37
74631;BME280;63138;55.082;38.804;2023-04-06T05:00:07;100530.16;;;5.46;72.03
74631;BME280;63138;55.082;38.804;2023-04-06T05:02:37;100501.25;;;5.48;71.96
74631;BME280;63138;55.082;38.804;2023-04-06T05:05:14;100518.53;;;5.66;71.12
74631;BME280;63138;55.082;38.804;2023-04-06T05:07:45;100505.31;;;5.63;70.87
74631;BME280;63138;55.082;38.804;2023-04-06T05:10:22;100504.81;;;5.69;69.96
74631;BME280;63138;55.082;38.804;2023-04-06T05:12:53;100523.84;;;5.78;69.64
74631;BME280;63138;55.082;38.804;2023-04-06T05:15:19;100516.09;;;5.84;69.17
74631;BME280;63138;55.082;38.804;2023-04-06T05:17:50;100517.03;;;5.94;69.13
74631;BME280;63138;55.082;38.804;2023-04-06T05:20:25;100514.16;;;6.07;68.59
74631;BME280;63138;55.082;38.804;2023-04-06T05:22:52;100510.25;;;6.21;68.56
74631;BME280;63138;55.082;38.804;2023-04-06T05:25:18;100509.56;;;6.29;67.72
74631;BME280;63138;55.082;38.804;2023-04-06T05:27:51;100521.25;;;6.39;66.74
74631;BME280;63138;55.082;38.804;2023-04-06T05:30:30;100517.16;;;6.45;67.08
74631;BME280;63138;55.082;38.804;2023-04-06T05:32:59;100508.38;;;6.53;66.16
74631;BME280;63138;55.082;38.804;2023-04-06T05:35:32;100518.03;;;6.55;66.15
74631;BME280;63138;55.082;38.804;2023-04-06T05:38:13;100516.47;;;6.53;66.50
74631;BME280;63138;55.082;38.804;2023-04-06T05:40:39;100510.56;;;6.68;65.75
74631;BME280;63138;55.082;38.804;2023-04-06T05:43:11;100516.00;;;6.88;64.70
74631;BME280;63138;55.082;38.804;2023-04-06T05:46:04;100509.38;;;7.12;63.96
74631;BME280;63138;55.082;38.804;2023-04-06T05:48:31;100510.50;;;7.28;63.29
74631;BME280;63138;55.082;38.804;2023-04-06T05:50:57;100517.47;;;7.80;61.73
74631;BME280;63138;55.082;38.804;2023-04-06T05:53:36;100524.84;;;8.72;59.02
74631;BME280;63138;55.082;38.804;2023-04-06T05:56:03;100521.00;;;9.21;56.47
74631;BME280;63138;55.082;38.804;2023-04-06T05:58:33;100506.78;;;9.81;55.07
74631;BME280;63138;55.082;38.804;2023-04-06T06:01:00;100507.91;;;10.22;53.28
74631;BME280;63138;55.082;38.804;2023-04-06T06:03:35;100516.47;;;11.21;50.73
74631;BME280;63138;55.082;38.804;2023-04-06T06:06:02;100509.00;;;11.39;49.84
74631;BME280;63138;55.082;38.804;2023-04-06T06:08:35;100521.44;;;11.66;49.04
74631;BME280;63138;55.082;38.804;2023-04-06T06:11:05;100516.50;;;12.11;48.12
74631;BME280;63138;55.082;38.804;2023-04-06T06:13:50;100518.50;;;12.34;46.83
74631;BME280;63138;55.082;38.804;2023-04-06T06:16:18;100503.56;;;12.69;46.21
74631;BME280;63138;55.082;38.804;2023-04-06T06:19:06;100505.41;;;12.77;45.15
74631;BME280;63138;55.082;38.804;2023-04-06T06:22:00;100509.66;;;13.11;44.69
74631;BME280;63138;55.082;38.804;2023-04-06T06:24:47;100519.44;;;13.60;43.54
74631;BME280;63138;55.082;38.804;2023-04-06T06:27:19;100514.47;;;14.31;41.75
74631;BME280;63138;55.082;38.804;2023-04-06T06:29:46;100519.88;;;14.39;41.13
74631;BME280;63138;55.082;38.804;2023-04-06T06:32:38;100522.47;;;15.07;40.10
74631;BME280;63138;55.082;38.804;2023-04-06T06:38:33;100518.63;;;15.59;38.75
74631;BME280;63138;55.082;38.804;2023-04-06T06:41:00;100517.19;;;15.42;39.08
74631;BME280;63138;55.082;38.804;2023-04-06T06:43:32;100520.66;;;15.94;37.70
74631;BME280;63138;55.082;38.804;2023-04-06T06:46:03;100521.09;;;15.97;37.81
74631;BME280;63138;55.082;38.804;2023-04-06T06:48:50;100513.56;;;15.78;37.96
74631;BME280;63138;55.082;38.804;2023-04-06T06:51:18;100522.16;;;15.75;37.93
74631;BME280;63138;55.082;38.804;2023-04-06T06:54:21;100523.56;;;15.71;38.01
74631;BME280;63138;55.082;38.804;2023-04-06T06:56:47;100519.72;;;15.65;38.09
74631;BME280;63138;55.082;38.804;2023-04-06T06:59:14;100525.91;;;16.23;37.17
74631;BME280;63138;55.082;38.804;2023-04-06T07:02:00;100531.09;;;16.40;36.28
74631;BME280;63138;55.082;38.804;2023-04-06T07:04:26;100525.19;;;17.19;35.26
74631;BME280;63138;55.082;38.804;2023-04-06T07:07:12;100523.31;;;16.78;35.63
74631;BME280;63138;55.082;38.804;2023-04-06T07:09:38;100525.09;;;16.93;35.59
74631;BME280;63138;55.082;38.804;2023-04-06T07:12:06;100525.78;;;17.08;35.34
74631;BME280;63138;55.082;38.804;2023-04-06T07:14:32;100516.97;;;17.26;34.94
74631;BME280;63138;55.082;38.804;2023-04-06T07:16:58;100523.25;;;17.07;35.24
74631;BME280;63138;55.082;38.804;2023-04-06T07:19:24;100520.50;;;17.88;34.38
74631;BME280;63138;55.082;38.804;2023-04-06T07:21:50;100510.97;;;18.18;33.43
74631;BME280;63138;55.082;38.804;2023-04-06T07:24:17;100513.94;;;18.03;33.18
74631;BME280;63138;55.082;38.804;2023-04-06T07:26:43;100525.34;;;18.00;33.20
74631;BME280;63138;55.082;38.804;2023-04-06T07:29:09;100512.88;;;18.17;32.68
74631;BME280;63138;55.082;38.804;2023-04-06T07:31:35;100507.81;;;17.87;33.09
74631;BME280;63138;55.082;38.804;2023-04-06T07:34:02;100515.84;;;17.89;33.18
74631;BME280;63138;55.082;38.804;2023-04-06T07:36:29;100509.47;;;18.22;32.73
74631;BME280;63138;55.082;38.804;2023-04-06T07:38:55;100516.81;;;18.61;32.28
74631;BME280;63138;55.082;38.804;2023-04-06T07:41:24;100508.53;;;18.68;32.36
74631;BME280;63138;55.082;38.804;2023-04-06T07:44:14;100501.41;;;18.47;32.14
74631;BME280;63138;55.082;38.804;2023-04-06T07:46:42;100501.66;;;18.39;32.30
74631;BME280;63138;55.082;38.804;2023-04-06T07:49:14;100508.22;;;18.24;32.57
74631;BME280;63138;55.082;38.804;2023-04-06T07:51:41;100505.69;;;17.89;32.67
74631;BME280;63138;55.082;38.804;2023-04-06T07:54:07;100505.28;;;17.99;32.20
74631;BME280;63138;55.082;38.804;2023-04-06T07:56:33;100497.16;;;17.31;33.40
74631;BME280;63138;55.082;38.804;2023-04-06T07:59:00;100494.19;;;17.26;33.15
74631;BME280;63138;55.082;38.804;2023-04-06T08:01:28;100475.06;;;16.84;33.82
74631;BME280;63138;55.082;38.804;2023-04-06T08:03:55;100480.22;;;17.14;33.29
74631;BME280;63138;55.082;38.804;2023-04-06T08:06:22;100493.06;;;17.07;33.42
74631;BME280;63138;55.082;38.804;2023-04-06T08:08:49;100496.47;;;16.32;35.02
74631;BME280;63138;55.082;38.804;2023-04-06T08:11:15;100500.34;;;16.44;34.74
74631;BME280;63138;55.082;38.804;2023-04-06T08:13:41;100503.16;;;16.51;34.78
74631;BME280;63138;55.082;38.804;2023-04-06T08:16:07;100519.16;;;16.54;35.11
74631;BME280;63138;55.082;38.804;2023-04-06T08:18:34;100503.88;;;16.03;35.39
74631;BME280;63138;55.082;38.804;2023-04-06T08:21:00;100505.41;;;16.41;34.86
74631;BME280;63138;55.082;38.804;2023-04-06T08:23:52;100466.81;;;16.42;34.46
74631;BME280;63138;55.082;38.804;2023-04-06T08:26:24;100465.50;;;16.38;34.78
74631;BME280;63138;55.082;38.804;2023-04-06T08:28:52;100477.34;;;16.80;34.23
74631;BME280;63138;55.082;38.804;2023-04-06T08:31:17;100484.28;;;16.76;34.26
74631;BME280;63138;55.082;38.804;2023-04-06T08:33:44;100493.50;;;16.62;34.17
74631;BME280;63138;55.082;38.804;2023-04-06T08:36:14;100493.78;;;16.80;34.61
74631;BME280;63138;55.082;38.804;2023-04-06T08:38:49;100490.25;;;16.87;34.26
74631;BME280;63138;55.082;38.804;2023-04-06T08:41:17;100494.44;;;16.82;34.33
74631;BME280;63138;55.082;38.804;2023-04-06T08:43:48;100484.25;;;16.70;34.09
74631;BME280;63138;55.082;38.804;2023-04-06T08:46:15;100489.34;;;16.10;35.30
74631;BME280;63138;55.082;38.804;2023-04-06T08:48:43;100484.09;;;16.08;35.40
74631;BME280;63138;55.082;38.804;2023-04-06T08:51:10;100470.84;;;16.12;35.28
74631;BME280;63138;55.082;38.804;2023-04-06T08:54:03;100468.69;;;16.07;35.93
74631;BME280;63138;55.082;38.804;2023-04-06T08:56:30;100489.53;;;16.30;35.09
74631;BME280;63138;55.082;38.804;2023-04-06T08:59:21;100482.50;;;16.55;35.02
74631;BME280;63138;55.082;38.804;2023-04-06T09:01:47;100481.38;;;16.43;34.92
74631;BME280;63138;55.082;38.804;2023-04-06T09:04:15;100483.16;;;16.29;35.09
74631;BME280;63138;55.082;38.804;2023-04-06T09:07:00;100484.19;;;16.21;35.24
74631;BME280;63138;55.082;38.804;2023-04-06T09:09:31;100454.75;;;15.74;35.74
74631;BME280;63138;55.082;38.804;2023-04-06T09:11:57;100469.47;;;15.51;36.07
74631;BME280;63138;55.082;38.804;2023-04-06T09:14:38;100485.06;;;16.00;35.62
74631;BME280;63138;55.082;38.804;2023-04-06T09:17:06;100482.69;;;16.19;35.62
74631;BME280;63138;55.082;38.804;2023-04-06T09:19:46;100449.38;;;15.87;35.78
74631;BME280;63138;55.082;38.804;2023-04-06T09:22:16;100463.63;;;15.54;35.92
74631;BME280;63138;55.082;38.804;2023-04-06T09:25:18;100484.66;;;15.75;36.26
74631;BME280;63138;55.082;38.804;2023-04-06T09:27:57;100479.47;;;16.09;35.61
74631;BME280;63138;55.082;38.804;2023-04-06T09:30:26;100487.19;;;15.98;35.70
74631;BME280;63138;55.082;38.804;2023-04-06T09:32:56;100470.81;;;16.05;35.60
74631;BME280;63138;55.082;38.804;2023-04-06T09:35:23;100483.94;;;15.66;36.29
74631;BME280;63138;55.082;38.804;2023-04-06T09:37:53;100486.28;;;15.48;36.65
74631;BME280;63138;55.082;38.804;2023-04-06T09:40:19;100470.13;;;15.53;36.79
74631;BME280;63138;55.082;38.804;2023-04-06T09:42:47;100472.78;;;15.46;36.72
74631;BME280;63138;55.082;38.804;2023-04-06T09:45:14;100474.88;;;15.66;36.40
74631;BME280;63138;55.082;38.804;2023-04-06T09:47:45;100446.84;;;15.64;36.08
74631;BME280;63138;55.082;38.804;2023-04-06T09:53:19;100491.00;;;15.54;36.60
74631;BME280;63138;55.082;38.804;2023-04-06T09:55:51;100471.56;;;15.49;36.86
74631;BME280;63138;55.082;38.804;2023-04-06T09:58:25;100472.75;;;15.61;36.50
74631;BME280;63138;55.082;38.804;2023-04-06T10:01:23;100471.03;;;15.39;36.97
74631;BME280;63138;55.082;38.804;2023-04-06T10:06:55;100478.50;;;15.45;36.96
74631;BME280;63138;55.082;38.804;2023-04-06T10:09:25;100476.53;;;15.39;36.89
74631;BME280;63138;55.082;38.804;2023-04-06T10:11:54;100453.72;;;15.32;37.00
74631;BME280;63138;55.082;38.804;2023-04-06T10:14:25;100456.44;;;15.53;36.69
74631;BME280;63138;55.082;38.804;2023-04-06T10:23:04;100468.66;;;15.51;36.37
74631;BME280;63138;55.082;38.804;2023-04-06T10:25:32;100467.78;;;15.50;36.83
74631;BME280;63138;55.082;38.804;2023-04-06T10:28:23;100466.03;;;15.21;36.95
74631;BME280;63138;55.082;38.804;2023-04-06T10:30:57;100486.00;;;15.21;37.02
74631;BME280;63138;55.082;38.804;2023-04-06T10:33:23;100473.41;;;15.20;37.29
74631;BME280;63138;55.082;38.804;2023-04-06T10:35:50;100472.16;;;15.23;36.71
74631;BME280;63138;55.082;38.804;2023-04-06T10:38:38;100465.44;;;15.04;36.70
74631;BME280;63138;55.082;38.804;2023-04-06T10:41:10;100473.69;;;15.10;36.99
74631;BME280;63138;55.082;38.804;2023-04-06T10:43:38;100458.53;;;15.08;36.94
74631;BME280;63138;55.082;38.804;2023-04-06T10:46:06;100472.16;;;15.23;37.14
74631;BME280;63138;55.082;38.804;2023-04-06T10:48:39;100468.53;;;15.01;37.14
74631;BME280;63138;55.082;38.804;2023-04-06T10:51:30;100437.81;;;14.99;37.26
74631;BME280;63138;55.082;38.804;2023-04-06T10:53:56;100436.72;;;14.78;37.17
74631;BME280;63138;55.082;38.804;2023-04-06T10:56:24;100470.88;;;14.67;37.56
74631;BME280;63138;55.082;38.804;2023-04-06T10:59:21;100478.78;;;14.77;37.62
74631;BME280;63138;55.082;38.804;2023-04-06T11:01:47;100481.41;;;14.85;37.46
74631;BME280;63138;55.082;38.804;2023-04-06T11:04:17;100485.38;;;14.83;37.79
74631;BME280;63138;55.082;38.804;2023-04-06T11:06:49;100474.47;;;14.68;37.67
74631;BME280;63138;55.082;38.804;2023-04-06T11:09:30;100456.09;;;14.62;37.33
74631;BME280;63138;55.082;38.804;2023-04-06T11:12:06;100486.63;;;14.80;37.25
74631;BME280;63138;55.082;38.804;2023-04-06T11:17:44;100461.91;;;14.74;37.10
74631;BME280;63138;55.082;38.804;2023-04-06T11:20:11;100451.06;;;14.80;37.30
74631;BME280;63138;55.082;38.804;2023-04-06T11:22:51;100470.97;;;14.74;38.00
74631;BME280;63138;55.082;38.804;2023-04-06T11:25:18;100473.59;;;14.67;37.81
74631;BME280;63138;55.082;38.804;2023-04-06T11:27:46;100451.72;;;14.67;37.72
74631;BME280;63138;55.082;38.804;2023-04-06T11:30:17;100454.88;;;14.64;38.02
74631;BME280;63138;55.082;38.804;2023-04-06T11:35:57;100465.53;;;14.96;37.39
74631;BME280;63138;55.082;38.804;2023-04-06T11:38:23;100486.53;;;15.10;36.91
74631;BME280;63138;55.082;38.804;2023-04-06T11:40:53;100454.22;;;14.99;36.67
74631;BME280;63138;55.082;38.804;2023-04-06T11:43:29;100460.06;;;14.96;36.51
74631;BME280;63138;55.082;38.804;2023-04-06T11:46:18;100469.91;;;14.90;36.67
74631;BME280;63138;55.082;38.804;2023-04-06T11:48:47;100466.84;;;15.00;36.49
74631;BME280;63138;55.082;38.804;2023-04-06T11:51:21;100475.31;;;15.05;36.81
74631;BME280;63138;55.082;38.804;2023-04-06T11:56:36;100469.56;;;15.00;36.39
74631;BME280;63138;55.082;38.804;2023-04-06T11:59:04;100450.78;;;15.12;36.12
74631;BME280;63138;55.082;38.804;2023-04-06T12:01:48;100454.75;;;15.09;36.33
74631;BME280;63138;55.082;38.804;2023-04-06T12:04:41;100459.31;;;15.02;36.10
74631;BME280;63138;55.082;38.804;2023-04-06T12:07:08;100469.28;;;15.09;36.46
74631;BME280;63138;55.082;38.804;2023-04-06T12:09:33;100451.56;;;15.05;36.36
74631;BME280;63138;55.082;38.804;2023-04-06T12:12:01;100434.47;;;15.03;36.79
74631;BME280;63138;55.082;38.804;2023-04-06T12:14:27;100444.06;;;15.14;36.42
74631;BME280;63138;55.082;38.804;2023-04-06T12:16:53;100448.13;;;15.18;36.23
74631;BME280;63138;55.082;38.804;2023-04-06T12:19:19;100445.38;;;15.18;36.22
74631;BME280;63138;55.082;38.804;2023-04-06T12:21:45;100403.84;;;15.08;35.81
74631;BME280;63138;55.082;38.804;2023-04-06T12:24:13;100423.31;;;14.98;35.79
74631;BME280;63138;55.082;38.804;2023-04-06T12:26:46;100448.09;;;14.97;36.22
74631;BME280;63138;55.082;38.804;2023-04-06T12:29:14;100446.94;;;15.06;36.60
74631;BME280;63138;55.082;38.804;2023-04-06T12:31:41;100444.66;;;15.09;36.31
74631;BME280;63138;55.082;38.804;2023-04-06T12:34:16;100447.72;;;15.21;36.14
74631;BME280;63138;55.082;38.804;2023-04-06T12:36:42;100445.59;;;15.17;35.76
74631;BME280;63138;55.082;38.804;2023-04-06T12:39:43;100440.81;;;15.04;35.63
74631;BME280;63138;55.082;38.804;2023-04-06T12:42:11;100428.78;;;14.98;35.91
74631;BME280;63138;55.082;38.804;2023-04-06T12:44:38;100460.06;;;14.96;35.79
74631;BME280;63138;55.082;38.804;2023-04-06T12:47:05;100457.72;;;14.93;35.24
74631;BME280;63138;55.082;38.804;2023-04-06T12:49:33;100451.31;;;15.00;35.80
74631;BME280;63138;55.082;38.804;2023-04-06T12:51:59;100448.88;;;15.12;36.21
74631;BME280;63138;55.082;38.804;2023-04-06T12:54:27;100457.38;;;15.17;35.90
74631;BME280;63138;55.082;38.804;2023-04-06T12:57:21;100460.25;;;15.09;35.58
74631;BME280;63138;55.082;38.804;2023-04-06T12:59:47;100459.38;;;15.08;35.52
74631;BME280;63138;55.082;38.804;2023-04-06T13:02:14;100459.56;;;15.07;35.62
74631;BME280;63138;55.082;38.804;2023-04-06T13:04:40;100445.03;;;15.06;35.37
74631;BME280;63138;55.082;38.804;2023-04-06T13:07:07;100452.88;;;15.09;35.41
74631;BME280;63138;55.082;38.804;2023-04-06T13:09:33;100458.66;;;15.21;34.92
74631;BME280;63138;55.082;38.804;2023-04-06T13:11:59;100448.06;;;15.33;34.65
74631;BME280;63138;55.082;38.804;2023-04-06T13:14:27;100436.28;;;15.33;34.99
74631;BME280;63138;55.082;38.804;2023-04-06T13:16:53;100438.22;;;15.17;35.18
74631;BME280;63138;55.082;38.804;2023-04-06T13:19:19;100434.56;;;15.10;35.20
74631;BME280;63138;55.082;38.804;2023-04-06T13:21:47;100448.16;;;15.03;34.83
74631;BME280;63138;55.082;38.804;2023-04-06T13:24:13;100437.03;;;15.05;34.89
74631;BME280;63138;55.082;38.804;2023-04-06T13:27:06;100433.56;;;14.96;34.64
74631;BME280;63138;55.082;38.804;2023-04-06T13:29:32;100425.50;;;14.88;35.00
74631;BME280;63138;55.082;38.804;2023-04-06T13:34:48;100430.59;;;14.91;35.17
74631;BME280;63138;55.082;38.804;2023-04-06T13:37:39;100429.16;;;14.95;34.80